createdAt,value
2019-03-21T00:00:56.573Z,9.60
2019-03-21T00:03:26.757Z,9.73
2019-03-21T00:06:00.773Z,9.83
2019-03-21T00:08:31.670Z,9.13
2019-03-21T00:11:36.460Z,9.53
2019-03-21T00:14:16.011Z,9.50
2019-03-21T00:16:45.917Z,9.90
2019-03-21T00:19:17.680Z,9.65
2019-03-21T00:21:49.117Z,9.43
2019-03-21T00:24:22.417Z,9.50
2019-03-21T00:26:52.705Z,9.60
2019-03-21T00:29:24.138Z,9.46
2019-03-21T00:31:54.136Z,9.67
2019-03-21T00:34:24.109Z,10.20
2019-03-21T00:36:54.078Z,10.33
2019-03-21T00:39:33.087Z,10.40
2019-03-21T00:42:01.918Z,10.40
2019-03-21T00:44:33.205Z,9.90
2019-03-21T00:47:03.319Z,11.07
2019-03-21T00:49:33.274Z,9.50
2019-03-21T00:52:03.191Z,9.60
2019-03-21T00:54:34.337Z,9.87
2019-03-21T00:57:04.466Z,9.70
2019-03-21T00:59:37.393Z,10.13
2019-03-21T01:02:09.076Z,9.87
2019-03-21T01:04:39.020Z,9.90
2019-03-21T01:07:11.540Z,9.20
2019-03-21T01:09:41.664Z,9.37
2019-03-21T01:12:12.728Z,9.90
2019-03-21T01:14:43.004Z,10.07
2019-03-21T01:17:13.032Z,10.10
2019-03-21T01:19:42.984Z,9.70
2019-03-21T01:22:12.888Z,10.30
2019-03-21T01:24:43.350Z,10.37
2019-03-21T01:27:13.577Z,9.90
2019-03-21T01:29:43.821Z,10.77
2019-03-21T01:32:13.737Z,10.63
2019-03-21T01:34:44.638Z,10.03
2019-03-21T01:37:17.299Z,10.13
2019-03-21T01:39:47.258Z,10.60
2019-03-21T01:42:19.230Z,10.70
2019-03-21T01:44:49.164Z,10.97
2019-03-21T01:47:19.060Z,10.93
2019-03-21T01:49:50.783Z,11.53
2019-03-21T01:52:22.037Z,11.50
2019-03-21T01:54:55.048Z,11.53
2019-03-21T01:57:33.936Z,12.05
2019-03-21T02:00:04.422Z,11.23
2019-03-21T02:02:36.385Z,11.12
2019-03-21T02:05:09.227Z,11.63
2019-03-21T02:07:41.919Z,12.43
2019-03-21T02:10:15.665Z,12.10
2019-03-21T02:12:48.591Z,12.28
2019-03-21T02:15:18.868Z,12.45
2019-03-21T02:17:50.891Z,11.50
2019-03-21T02:20:20.773Z,12.16
2019-03-21T02:22:51.173Z,11.90
2019-03-21T02:25:24.065Z,11.10
2019-03-21T02:27:55.209Z,11.80
2019-03-21T02:30:29.378Z,11.10
2019-03-21T02:33:06.580Z,11.30
2019-03-21T02:35:37.615Z,13.20
2019-03-21T02:38:09.105Z,11.00
2019-03-21T02:40:40.114Z,11.73
2019-03-21T02:43:10.106Z,10.50
2019-03-21T02:45:44.065Z,12.57
2019-03-21T02:48:14.003Z,12.40
2019-03-21T02:50:44.130Z,12.30
2019-03-21T02:53:14.037Z,11.20
2019-03-21T02:55:43.950Z,11.17
2019-03-21T02:58:15.029Z,12.83
2019-03-21T03:00:44.894Z,12.20
2019-03-21T03:03:15.862Z,12.20
2019-03-21T03:05:46.580Z,12.53
2019-03-21T03:08:17.730Z,12.35
2019-03-21T03:10:49.736Z,11.83
2019-03-21T03:13:20.179Z,13.00
2019-03-21T03:15:50.606Z,12.83
2019-03-21T03:18:20.479Z,11.70
2019-03-21T03:20:50.447Z,12.73
2019-03-21T03:23:20.510Z,10.80
2019-03-21T03:25:51.435Z,12.20
2019-03-21T03:28:25.030Z,11.03
2019-03-21T03:30:56.066Z,11.33
2019-03-21T03:33:26.606Z,10.90
2019-03-21T03:35:57.683Z,11.60
2019-03-21T03:38:27.556Z,11.80
2019-03-21T03:40:59.266Z,11.83
2019-03-21T03:43:29.760Z,10.72
2019-03-21T03:46:00.999Z,11.48
2019-03-21T03:48:30.917Z,11.95
2019-03-21T03:51:00.821Z,11.50
2019-03-21T03:53:31.934Z,11.53
2019-03-21T03:56:02.054Z,11.03
2019-03-21T03:58:33.700Z,11.27
2019-03-21T04:01:03.612Z,11.28
2019-03-21T04:03:34.625Z,11.97
2019-03-21T04:06:04.923Z,13.43
2019-03-21T04:08:35.165Z,11.05
2019-03-21T04:11:05.078Z,12.20
2019-03-21T04:13:35.298Z,11.73
2019-03-21T04:16:05.801Z,11.37
2019-03-21T04:18:35.723Z,11.80
2019-03-21T04:21:06.336Z,11.08
2019-03-21T04:23:36.570Z,11.43
2019-03-21T04:26:10.378Z,12.00
2019-03-21T04:28:42.127Z,11.37
2019-03-21T04:31:11.971Z,12.13
2019-03-21T04:33:42.299Z,11.63
2019-03-21T04:36:16.713Z,12.60
2019-03-21T04:38:46.640Z,14.03
2019-03-21T04:41:18.046Z,12.98
2019-03-21T04:43:52.968Z,13.00
2019-03-21T04:46:24.495Z,12.50
2019-03-21T04:48:55.059Z,12.30
2019-03-21T04:51:26.449Z,13.30
2019-03-21T04:53:56.417Z,13.87
2019-03-21T04:56:26.392Z,13.00
2019-03-21T04:58:58.434Z,11.20
2019-03-21T05:01:28.337Z,11.70
2019-03-21T05:03:58.269Z,11.47
2019-03-21T05:06:28.836Z,12.23
2019-03-21T05:08:59.117Z,11.30
2019-03-21T05:11:29.231Z,13.10
2019-03-21T05:14:00.646Z,16.17
2019-03-21T05:16:35.175Z,17.30
2019-03-21T05:19:05.047Z,17.37
2019-03-21T05:21:37.193Z,15.72
2019-03-21T05:24:07.137Z,14.10
2019-03-21T05:26:37.323Z,11.40
2019-03-21T05:29:07.712Z,15.37
2019-03-21T05:31:40.362Z,14.00
2019-03-21T05:34:10.280Z,15.10
2019-03-21T05:36:40.253Z,13.90
2019-03-21T05:39:13.297Z,11.00
2019-03-21T05:41:44.635Z,11.53
2019-03-21T05:44:39.837Z,12.05
2019-03-21T05:47:14.786Z,12.20
2019-03-21T05:49:45.017Z,10.40
2019-03-21T05:52:15.916Z,9.80
2019-03-21T05:54:49.987Z,10.27
2019-03-21T05:57:27.091Z,9.97
2019-03-21T05:59:57.141Z,8.83
2019-03-21T06:02:27.202Z,8.40
2019-03-21T06:04:58.360Z,7.90
2019-03-21T06:07:42.626Z,9.50
2019-03-21T06:10:14.778Z,7.90
2019-03-21T06:12:46.557Z,8.53
2019-03-21T06:15:24.409Z,8.30
2019-03-21T06:18:17.176Z,8.00
2019-03-21T06:21:01.992Z,8.23
2019-03-21T06:23:58.795Z,9.63
2019-03-21T06:26:50.930Z,8.77
2019-03-21T06:29:22.108Z,9.03
2019-03-21T06:31:52.004Z,8.67
2019-03-21T06:34:23.007Z,9.65
2019-03-21T06:36:55.313Z,7.63
2019-03-21T06:39:25.224Z,7.13
2019-03-21T06:41:55.512Z,6.73
2019-03-21T06:44:25.420Z,7.30
2019-03-21T06:46:56.301Z,6.77
2019-03-21T06:49:27.132Z,7.60
2019-03-21T06:51:58.494Z,7.30
2019-03-21T06:54:28.311Z,8.17
2019-03-21T06:57:02.259Z,8.40
2019-03-21T06:59:35.093Z,9.07
2019-03-21T07:02:05.989Z,8.60
2019-03-21T07:04:39.248Z,8.10
2019-03-21T07:07:09.177Z,8.07
2019-03-21T07:09:39.494Z,8.20
2019-03-21T07:12:09.422Z,8.07
2019-03-21T07:14:41.120Z,7.53
2019-03-21T07:17:16.858Z,7.37
2019-03-21T07:19:47.515Z,7.30
2019-03-21T07:22:19.296Z,7.47
2019-03-21T07:24:50.505Z,6.77
2019-03-21T07:27:24.989Z,5.78
2019-03-21T07:29:55.334Z,5.83
2019-03-21T07:32:33.524Z,5.60
2019-03-21T07:35:01.333Z,6.20
2019-03-21T07:37:31.579Z,6.27
2019-03-21T07:40:01.509Z,7.13
2019-03-21T07:42:31.443Z,6.53
2019-03-21T07:45:02.823Z,6.20
2019-03-21T07:47:32.657Z,6.20
2019-03-21T07:50:04.872Z,5.07
2019-03-21T07:52:36.829Z,5.90
2019-03-21T07:55:07.475Z,5.80
2019-03-21T07:57:37.421Z,5.33
2019-03-21T08:00:11.299Z,5.47
2019-03-21T08:02:42.348Z,4.93
2019-03-21T08:05:13.624Z,5.87
2019-03-21T08:07:45.008Z,5.53
2019-03-21T08:10:15.946Z,5.80
2019-03-21T08:12:45.889Z,5.40
2019-03-21T08:15:16.840Z,5.17
2019-03-21T08:17:46.745Z,4.73
2019-03-21T08:20:18.740Z,5.50
2019-03-21T08:22:48.964Z,5.43
2019-03-21T08:25:18.944Z,5.50
2019-03-21T08:27:48.869Z,5.77
2019-03-21T08:31:04.060Z,5.85
2019-03-21T08:33:34.281Z,4.97
2019-03-21T08:36:05.757Z,5.50
2019-03-21T08:38:36.512Z,6.10
2019-03-21T08:41:08.176Z,6.67
2019-03-21T08:43:38.048Z,4.77
2019-03-21T08:46:07.972Z,5.83
2019-03-21T08:48:37.894Z,4.67
2019-03-21T08:51:09.197Z,4.57
2019-03-21T08:53:39.430Z,4.90
2019-03-21T08:56:10.025Z,5.17
2019-03-21T08:58:39.932Z,5.00
2019-03-21T09:01:09.845Z,4.80
2019-03-21T09:03:40.311Z,4.57
2019-03-21T09:06:10.304Z,5.27
2019-03-21T09:08:40.208Z,4.40
2019-03-21T09:11:10.152Z,5.20
2019-03-21T09:13:51.125Z,5.23
2019-03-21T09:16:21.652Z,5.30
2019-03-21T09:18:55.109Z,5.00
2019-03-21T09:21:25.764Z,5.43
2019-03-21T09:23:57.021Z,6.05
2019-03-21T09:26:26.990Z,5.53
2019-03-21T09:28:57.020Z,5.57
2019-03-21T09:31:26.965Z,6.03
2019-03-21T09:33:58.904Z,6.33
2019-03-21T09:36:30.977Z,6.60
2019-03-21T09:39:01.978Z,6.33
2019-03-21T09:41:32.869Z,6.08
2019-03-21T09:44:04.389Z,6.10
2019-03-21T09:46:35.250Z,6.90
2019-03-21T09:49:05.551Z,7.47
2019-03-21T09:51:37.115Z,7.28
2019-03-21T09:54:13.550Z,6.50
2019-03-21T09:56:45.151Z,6.53
2019-03-21T09:59:18.998Z,6.45
2019-03-21T10:01:49.837Z,7.20
2019-03-21T10:04:22.164Z,7.10
2019-03-21T10:06:53.456Z,7.07
2019-03-21T10:09:30.767Z,6.93
2019-03-21T10:12:06.083Z,7.10
2019-03-21T10:14:40.490Z,6.13
2019-03-21T10:17:11.606Z,7.40
2019-03-21T10:19:48.360Z,7.00
2019-03-21T10:22:22.822Z,7.15
2019-03-21T10:24:54.051Z,7.17
2019-03-21T10:27:27.395Z,8.00
2019-03-21T10:29:57.645Z,7.63
2019-03-21T10:32:36.366Z,7.83
2019-03-21T10:35:08.354Z,7.67
2019-03-21T10:37:38.858Z,7.50
2019-03-21T10:40:09.001Z,8.13
2019-03-21T10:42:39.328Z,7.40
2019-03-21T10:45:12.226Z,7.40
2019-03-21T10:47:42.208Z,8.37
2019-03-21T10:50:17.732Z,8.50
2019-03-21T10:52:48.039Z,8.35
2019-03-21T10:55:19.382Z,9.17
2019-03-21T10:57:51.270Z,8.57
2019-03-21T11:00:21.980Z,9.60
2019-03-21T11:02:52.105Z,10.40
2019-03-21T11:05:23.390Z,9.90
2019-03-21T11:07:53.952Z,10.07
2019-03-21T11:10:23.849Z,9.98
2019-03-21T11:12:53.822Z,10.50
2019-03-21T11:15:23.733Z,10.30
2019-03-21T11:17:55.090Z,10.98
2019-03-21T11:20:32.292Z,9.77
2019-03-21T11:23:02.192Z,8.83
2019-03-21T11:25:36.638Z,9.57
2019-03-21T11:28:07.640Z,8.00
2019-03-21T11:30:42.238Z,8.23
2019-03-21T11:33:12.482Z,8.50
2019-03-21T11:35:43.633Z,8.03
2019-03-21T11:38:13.714Z,8.20
2019-03-21T11:40:48.357Z,8.70
2019-03-21T11:43:19.989Z,8.17
2019-03-21T11:45:49.900Z,8.77
2019-03-21T11:48:20.642Z,7.77
2019-03-21T11:50:51.113Z,7.78
2019-03-21T11:53:21.101Z,7.43
2019-03-21T11:55:51.335Z,8.40
2019-03-21T11:58:21.279Z,8.27
2019-03-21T12:00:52.315Z,9.03
2019-03-21T12:03:24.250Z,8.40
2019-03-21T12:05:54.476Z,9.03
2019-03-21T12:08:24.628Z,9.23
2019-03-21T12:10:55.103Z,8.30
2019-03-21T12:13:29.032Z,8.27
2019-03-21T12:15:59.242Z,8.00
2019-03-21T12:18:29.567Z,8.60
2019-03-21T12:21:00.488Z,8.37
2019-03-21T12:23:31.408Z,8.37
2019-03-21T12:26:01.556Z,8.20
2019-03-21T12:28:31.781Z,7.87
2019-03-21T12:31:03.053Z,8.53
2019-03-21T12:33:32.953Z,8.20
2019-03-21T12:36:03.402Z,8.90
2019-03-21T12:38:33.808Z,8.30
2019-03-21T12:41:06.986Z,8.08
2019-03-21T12:43:38.025Z,8.03
2019-03-21T12:46:07.910Z,8.03
2019-03-21T12:48:40.839Z,8.50
2019-03-21T12:51:14.709Z,8.13
2019-03-21T12:53:45.276Z,8.65
2019-03-21T12:56:17.533Z,8.25
2019-03-21T12:58:49.808Z,8.23
2019-03-21T13:01:20.566Z,8.20
2019-03-21T13:03:52.344Z,8.50
2019-03-21T13:06:23.332Z,8.70
2019-03-21T13:08:57.970Z,8.93
2019-03-21T13:11:31.660Z,8.80
2019-03-21T13:14:03.821Z,9.50
2019-03-21T13:16:33.986Z,7.97
2019-03-21T13:19:04.329Z,8.23
2019-03-21T13:21:36.010Z,8.43
2019-03-21T13:24:07.190Z,8.83
2019-03-21T13:26:37.955Z,8.60
2019-03-21T13:29:10.202Z,9.10
2019-03-21T13:31:42.575Z,8.63
2019-03-21T13:34:14.009Z,8.17
2019-03-21T13:36:50.076Z,9.00
2019-03-21T13:39:22.410Z,9.40
2019-03-21T13:41:57.990Z,7.90
2019-03-21T13:44:27.951Z,8.83
2019-03-21T13:46:57.822Z,8.97
2019-03-21T13:49:27.749Z,8.43
2019-03-21T13:51:58.565Z,8.80
2019-03-21T13:54:28.836Z,8.40
2019-03-21T13:56:59.969Z,8.80
2019-03-21T13:59:33.203Z,8.03
2019-03-21T14:02:03.294Z,6.97
2019-03-21T14:04:34.347Z,8.83
2019-03-21T14:07:05.173Z,7.60
2019-03-21T14:09:36.518Z,7.83
2019-03-21T14:12:06.421Z,9.00
2019-03-21T14:14:36.358Z,8.60
2019-03-21T14:17:06.975Z,8.47
2019-03-21T14:19:39.583Z,7.97
2019-03-21T14:22:15.933Z,7.60
2019-03-21T14:24:45.808Z,8.70
2019-03-21T14:27:16.682Z,7.47
2019-03-21T14:29:47.012Z,7.85
2019-03-21T14:32:18.832Z,8.28
2019-03-21T14:34:48.820Z,8.33
2019-03-21T14:37:19.208Z,7.63
2019-03-21T14:39:50.974Z,7.67
2019-03-21T14:42:23.676Z,7.27
2019-03-21T14:44:55.708Z,8.70
2019-03-21T14:47:35.851Z,7.95
2019-03-21T14:49:57.137Z,7.37
2019-03-21T14:52:27.492Z,7.03
2019-03-21T14:54:58.844Z,7.63
2019-03-21T14:57:30.828Z,7.80
2019-03-21T15:00:00.694Z,7.97
2019-03-21T15:02:30.613Z,7.90
2019-03-21T15:05:00.741Z,7.90
2019-03-21T15:07:31.341Z,7.13
2019-03-21T15:10:01.236Z,7.73
2019-03-21T15:12:31.137Z,8.53
2019-03-21T15:15:01.404Z,8.77
2019-03-21T15:17:31.436Z,7.80
2019-03-21T15:20:04.728Z,7.50
2019-03-21T15:22:35.110Z,7.60
2019-03-21T15:25:05.847Z,7.57
2019-03-21T15:27:35.824Z,8.27
2019-03-21T15:30:09.760Z,7.67
2019-03-21T15:32:41.747Z,7.43
2019-03-21T15:35:12.818Z,8.70
2019-03-21T15:37:45.262Z,7.87
2019-03-21T15:40:18.715Z,7.78
2019-03-21T15:42:50.601Z,7.90
2019-03-21T15:45:23.795Z,10.20
2019-03-21T15:47:56.333Z,7.70
2019-03-21T15:50:33.579Z,7.70
2019-03-21T15:53:04.121Z,7.90
2019-03-21T15:55:38.415Z,8.68
2019-03-21T15:58:08.348Z,8.37
2019-03-21T16:00:42.263Z,8.60
2019-03-21T16:03:12.993Z,9.50
2019-03-21T16:05:43.010Z,9.40
2019-03-21T16:08:14.342Z,8.70
2019-03-21T16:10:44.184Z,9.03
2019-03-21T16:13:14.078Z,8.63
2019-03-21T16:15:45.177Z,9.27
2019-03-21T16:18:16.788Z,9.10
2019-03-21T16:20:46.716Z,9.90
2019-03-21T16:24:13.512Z,8.45
2019-03-21T16:43:16.253Z,9.10
2019-03-21T16:46:35.939Z,9.23
2019-03-21T16:51:03.366Z,9.35
2019-03-21T16:54:17.179Z,9.43
2019-03-21T17:01:22.172Z,9.90
2019-03-21T17:08:54.150Z,10.15
2019-03-21T17:15:58.613Z,9.40
2019-03-21T17:19:09.565Z,10.10
2019-03-21T17:22:39.820Z,10.10
2019-03-21T17:30:15.108Z,9.65
2019-03-21T17:45:37.431Z,11.10
2019-03-21T18:44:27.308Z,11.33
2019-03-21T18:47:41.954Z,11.90
2019-03-21T18:54:31.278Z,11.53
2019-03-21T18:57:53.121Z,10.43
2019-03-21T19:01:58.030Z,10.00
2019-03-21T19:09:16.160Z,11.60
2019-03-21T19:12:31.194Z,15.75
2019-03-21T19:28:24.850Z,14.00
2019-03-21T19:32:06.971Z,12.93
2019-03-21T19:42:49.228Z,16.27
2019-03-21T20:14:29.057Z,15.20
2019-03-21T20:19:46.031Z,16.25
2019-03-21T20:23:43.867Z,19.20
2019-03-21T20:26:35.144Z,19.15
2019-03-21T20:30:31.549Z,18.03
2019-03-21T20:46:14.876Z,16.40
2019-03-21T20:53:03.285Z,16.00
2019-03-21T20:56:15.824Z,16.20
2019-03-21T20:59:48.343Z,15.33
2019-03-21T21:09:56.881Z,18.37
2019-03-21T21:32:57.778Z,19.10
2019-03-21T21:44:58.858Z,19.20
2019-03-21T21:49:24.790Z,15.78
2019-03-21T22:17:35.874Z,15.67
2019-03-21T22:21:03.274Z,17.10
2019-03-21T22:36:08.182Z,18.57
2019-03-21T23:30:35.197Z,16.50
